createdAt,value
2023-04-20T00:00:43.151Z,102538.59
2023-04-20T00:05:49.277Z,102531.47
2023-04-20T00:10:52.175Z,102521.78
2023-04-20T00:15:56.320Z,102514.78
2023-04-20T00:21:13.753Z,102513.88
2023-04-20T00:26:16.979Z,102511.19
2023-04-20T00:31:26.399Z,102505.06
2023-04-20T00:36:30.008Z,102495.41
2023-04-20T00:41:34.664Z,102488.50
2023-04-20T00:46:54.811Z,102484.91
2023-04-20T00:51:57.822Z,102463.03
2023-04-20T00:57:01.244Z,102462.03
2023-04-20T01:02:05.500Z,102452.38
2023-04-20T01:07:09.790Z,102447.97
2023-04-20T01:12:26.852Z,102431.41
2023-04-20T01:17:31.058Z,102425.41
2023-04-20T01:22:35.297Z,102415.06
2023-04-20T01:27:38.123Z,102410.72
2023-04-20T01:32:41.650Z,102396.91
2023-04-20T01:38:04.008Z,102393.53
2023-04-20T01:43:07.174Z,102394.50
2023-04-20T01:48:10.036Z,102388.41
2023-04-20T01:53:14.623Z,102387.50
2023-04-20T01:58:17.622Z,102385.00
2023-04-20T02:03:39.346Z,102383.44
2023-04-20T02:08:43.609Z,102369.72
2023-04-20T02:13:46.545Z,102349.91
2023-04-20T02:18:49.514Z,102339.59
2023-04-20T02:23:53.705Z,102332.84
2023-04-20T02:29:16.043Z,102338.22
2023-04-20T02:34:19.002Z,102324.34
2023-04-20T02:39:23.223Z,102326.13
2023-04-20T02:44:25.952Z,102307.06
2023-04-20T02:49:28.870Z,102307.94
2023-04-20T02:54:54.325Z,102290.66
2023-04-20T02:59:58.483Z,102284.63
2023-04-20T03:05:11.171Z,102280.28
2023-04-20T03:10:20.467Z,102278.63
2023-04-20T03:15:34.551Z,102270.81
2023-04-20T03:20:56.274Z,102269.09
2023-04-20T03:26:01.582Z,102249.13
2023-04-20T03:31:23.185Z,102243.91
2023-04-20T03:36:29.286Z,102240.44
2023-04-20T03:41:36.888Z,102234.41
2023-04-20T03:46:39.695Z,102232.66
2023-04-20T03:51:42.495Z,102217.88
2023-04-20T03:56:49.649Z,102216.13
2023-04-20T04:01:54.226Z,102204.81
2023-04-20T04:07:16.201Z,102201.28
2023-04-20T04:12:21.620Z,102195.19
2023-04-20T04:17:25.611Z,102187.38
2023-04-20T04:22:36.282Z,102185.63
2023-04-20T04:28:28.898Z,102179.56
2023-04-20T04:34:07.320Z,102167.38
2023-04-20T04:39:18.450Z,102166.50
2023-04-20T04:44:31.852Z,102155.25
2023-04-20T04:49:49.293Z,102157.00
2023-04-20T04:54:53.294Z,102160.47
2023-04-20T04:59:57.702Z,102149.16
2023-04-20T05:05:28.321Z,102150.03
2023-04-20T05:10:51.597Z,102144.78
2023-04-20T05:15:55.803Z,102137.84
2023-04-20T05:21:00.239Z,102133.50
2023-04-20T05:26:03.161Z,102117.84
2023-04-20T05:31:08.076Z,102125.63
2023-04-20T05:36:31.358Z,102137.81
2023-04-20T05:41:34.264Z,102123.88
2023-04-20T05:46:38.565Z,102131.72
2023-04-20T05:51:41.364Z,102139.59
2023-04-20T05:56:44.218Z,102132.63
2023-04-20T06:02:08.801Z,102122.19
2023-04-20T06:07:11.661Z,102113.44
2023-04-20T06:12:14.514Z,102132.63
2023-04-20T06:17:18.757Z,102136.13
2023-04-20T06:22:21.732Z,102126.53
2023-04-20T06:27:44.888Z,102122.19
2023-04-20T06:32:49.114Z,102100.47
2023-04-20T06:37:52.085Z,102109.16
2023-04-20T06:42:54.994Z,102121.28
2023-04-20T06:47:59.303Z,102126.50
2023-04-20T06:53:22.530Z,102121.28
2023-04-20T06:58:25.424Z,102112.59
2023-04-20T07:03:30.307Z,102122.09
2023-04-20T07:08:33.292Z,102121.09
2023-04-20T07:13:36.254Z,102135.00
2023-04-20T07:19:00.800Z,102141.97
2023-04-20T07:24:03.737Z,102128.06
2023-04-20T07:29:13.821Z,102137.66
2023-04-20T07:34:18.273Z,102128.06
2023-04-20T07:39:21.473Z,102119.44
2023-04-20T07:44:44.578Z,102129.91
2023-04-20T07:49:49.116Z,102108.09
2023-04-20T07:54:53.684Z,102124.53
2023-04-20T07:59:56.562Z,102129.78
2023-04-20T08:05:03.429Z,102134.78
2023-04-20T08:10:27.054Z,102139.19
2023-04-20T08:15:31.557Z,102132.81
2023-04-20T08:20:35.965Z,102132.72
2023-04-20T08:25:40.046Z,102103.50
2023-04-20T08:30:43.106Z,102086.16
2023-04-20T08:36:07.862Z,102070.56
2023-04-20T08:41:13.168Z,102048.03
2023-04-20T08:46:38.603Z,102047.47
2023-04-20T08:51:44.726Z,102049.94
2023-04-20T08:56:48.781Z,102033.88
2023-04-20T09:01:58.334Z,102044.47
2023-04-20T09:07:02.788Z,102059.41
2023-04-20T09:12:07.842Z,102056.84
2023-04-20T09:17:14.288Z,102051.59
2023-04-20T09:22:18.735Z,102050.78
2023-04-20T09:27:37.681Z,102045.56
2023-04-20T09:32:40.584Z,102037.84
2023-04-20T09:37:50.352Z,102030.00
2023-04-20T09:42:54.558Z,102034.34
2023-04-20T09:47:58.666Z,102053.47
2023-04-20T09:53:06.751Z,102054.28
2023-04-20T09:58:09.547Z,102043.06
2023-04-20T10:03:12.757Z,102042.09
2023-04-20T10:08:17.005Z,102030.81
2023-04-20T10:13:21.828Z,102031.69
2023-04-20T10:18:41.286Z,102018.69
2023-04-20T10:23:52.095Z,102020.44
2023-04-20T10:28:55.063Z,102033.50
2023-04-20T10:33:57.980Z,102028.25
2023-04-20T10:39:05.006Z,102014.31
2023-04-20T10:44:17.884Z,102013.31
2023-04-20T10:49:21.638Z,102006.41
2023-04-20T10:54:26.064Z,102003.56
2023-04-20T10:59:30.256Z,102016.66
2023-04-20T11:04:33.714Z,102009.75
2023-04-20T11:09:56.818Z,102021.22
2023-04-20T11:15:02.699Z,102007.22
2023-04-20T11:20:10.885Z,102010.63
2023-04-20T11:25:15.078Z,101994.59
2023-04-20T11:30:18.112Z,101992.91
2023-04-20T11:35:37.747Z,101985.78
2023-04-20T11:40:42.044Z,101985.09
2023-04-20T11:45:45.102Z,101970.22
2023-04-20T11:50:47.965Z,101959.50
2023-04-20T11:55:52.153Z,101954.38
2023-04-20T12:01:07.024Z,101941.94
2023-04-20T12:06:09.947Z,101954.34
2023-04-20T12:11:14.260Z,101969.00
2023-04-20T12:16:17.215Z,101957.84
2023-04-20T12:21:20.066Z,101945.56
2023-04-20T12:26:44.447Z,101949.97
2023-04-20T12:31:47.360Z,101945.72
2023-04-20T12:36:50.296Z,101944.53
2023-04-20T12:41:54.470Z,101931.59
2023-04-20T12:46:57.234Z,101914.75
2023-04-20T12:52:20.547Z,101928.91
2023-04-20T12:57:24.692Z,101914.06
2023-04-20T13:02:27.794Z,101917.69
2023-04-20T13:07:31.640Z,101909.94
2023-04-20T13:12:35.933Z,101913.16
2023-04-20T13:17:56.121Z,101912.78
2023-04-20T13:23:01.538Z,101908.44
2023-04-20T13:28:07.192Z,101914.16
2023-04-20T13:33:09.987Z,101916.88
2023-04-20T13:38:12.819Z,101906.53
2023-04-20T13:43:17.971Z,101904.41
2023-04-20T13:48:21.785Z,101899.19
2023-04-20T13:53:43.025Z,101893.03
2023-04-20T13:58:47.247Z,101894.13
2023-04-20T14:03:52.206Z,101892.22
2023-04-20T14:08:55.092Z,101891.44
2023-04-20T14:13:59.336Z,101872.81
2023-04-20T14:19:20.144Z,101868.00
2023-04-20T14:24:23.040Z,101859.19
2023-04-20T14:29:27.200Z,101854.22
2023-04-20T14:34:30.006Z,101859.94
2023-04-20T14:39:32.877Z,101853.09
2023-04-20T14:44:57.061Z,101853.63
2023-04-20T14:49:59.993Z,101840.78
2023-04-20T14:55:03.218Z,101857.22
2023-04-20T15:00:10.498Z,101844.91
2023-04-20T15:05:13.600Z,101837.81
2023-04-20T15:10:32.658Z,101832.31
2023-04-20T15:15:47.593Z,101821.25
2023-04-20T15:20:52.314Z,101818.16
2023-04-20T15:25:55.162Z,101813.84
2023-04-20T15:30:59.425Z,101816.53
2023-04-20T15:36:08.791Z,101815.75
2023-04-20T15:41:11.644Z,101814.88
2023-04-20T15:46:15.980Z,101812.28
2023-04-20T15:51:20.112Z,101812.91
2023-04-20T15:56:23.327Z,101818.25
2023-04-20T16:01:46.810Z,101826.97
2023-04-20T16:06:49.919Z,101820.22
2023-04-20T16:11:52.840Z,101811.09
2023-04-20T16:16:57.039Z,101830.41
2023-04-20T16:21:59.931Z,101824.69
2023-04-20T16:27:20.824Z,101824.41
2023-04-20T16:32:25.080Z,101830.03
2023-04-20T16:37:27.984Z,101827.88
2023-04-20T16:42:30.759Z,101823.13
2023-04-20T16:47:35.105Z,101828.41
2023-04-20T16:52:58.112Z,101820.03
2023-04-20T16:58:01.018Z,101822.81
2023-04-20T17:03:10.263Z,101811.72
2023-04-20T17:08:13.223Z,101810.78
2023-04-20T17:13:16.145Z,101805.63
2023-04-20T17:18:20.771Z,101809.44
2023-04-20T17:23:23.584Z,101814.59
2023-04-20T17:28:47.357Z,101805.03
2023-04-20T17:33:51.563Z,101809.34
2023-04-20T17:38:54.395Z,101814.72
2023-04-20T17:43:57.240Z,101808.72
2023-04-20T17:49:01.407Z,101802.75
2023-04-20T17:54:24.545Z,101818.09
2023-04-20T17:59:29.140Z,101810.41
2023-04-20T18:04:34.817Z,101820.47
2023-04-20T18:09:38.973Z,101827.78
2023-04-20T18:14:42.475Z,101831.16
2023-04-20T18:20:08.642Z,101828.03
2023-04-20T18:25:11.709Z,101842.91
2023-04-20T18:30:15.033Z,101851.69
2023-04-20T18:35:19.477Z,101847.88
2023-04-20T18:40:22.364Z,101847.91
2023-04-20T18:45:45.564Z,101840.94
2023-04-20T18:50:49.640Z,101832.09
2023-04-20T18:55:53.616Z,101833.28
2023-04-20T19:00:56.465Z,101859.94
2023-04-20T19:06:00.701Z,101867.84
2023-04-20T19:11:23.804Z,101854.16
2023-04-20T19:16:26.650Z,101848.19
2023-04-20T19:21:32.065Z,101834.28
2023-04-20T19:26:34.909Z,101841.19
2023-04-20T19:31:39.991Z,101833.28
2023-04-20T19:37:01.909Z,101833.16
2023-04-20T19:42:04.933Z,101831.56
2023-04-20T19:47:07.796Z,101842.09
2023-04-20T19:52:12.016Z,101845.63
2023-04-20T19:57:14.918Z,101853.34
2023-04-20T20:02:37.725Z,101855.03
2023-04-20T20:07:42.408Z,101829.75
2023-04-20T20:12:45.956Z,101833.09
2023-04-20T20:17:48.738Z,101819.19
2023-04-20T20:22:52.973Z,101825.63
2023-04-20T20:28:13.324Z,101777.88
2023-04-20T20:33:16.093Z,101750.03
2023-04-20T20:38:20.965Z,101737.69
2023-04-20T20:43:25.156Z,101738.50
2023-04-20T20:48:28.053Z,101731.53
2023-04-20T20:53:52.927Z,101736.09
2023-04-20T20:58:55.685Z,101717.94
2023-04-20T21:03:58.757Z,101713.59
2023-04-20T21:09:04.252Z,101696.34
2023-04-20T21:14:09.249Z,101647.63
2023-04-20T21:19:29.530Z,101624.22
2023-04-20T21:24:33.690Z,101610.22
2023-04-20T21:29:37.502Z,101602.38
2023-04-20T21:34:40.258Z,101595.38
2023-04-20T21:39:44.448Z,101600.56
2023-04-20T21:45:02.757Z,101604.22
2023-04-20T21:50:06.252Z,101609.34
2023-04-20T21:55:11.090Z,101606.72
2023-04-20T22:00:15.486Z,101613.69
2023-04-20T22:05:20.664Z,101621.44
2023-04-20T22:10:40.752Z,101615.31
2023-04-20T22:15:43.892Z,101636.34
2023-04-20T22:20:46.797Z,101628.50
2023-04-20T22:25:50.972Z,101643.28
2023-04-20T22:30:53.736Z,101653.66
2023-04-20T22:36:16.993Z,101647.44
2023-04-20T22:41:21.328Z,101657.84
2023-04-20T22:46:30.110Z,101655.16
2023-04-20T22:51:33.317Z,101655.16
2023-04-20T22:56:37.476Z,101662.31
2023-04-20T23:01:51.429Z,101665.66
2023-04-20T23:06:55.951Z,101671.81
2023-04-20T23:12:00.355Z,101663.09
2023-04-20T23:17:03.146Z,101643.09
2023-04-20T23:22:08.834Z,101647.41
2023-04-20T23:27:29.803Z,101650.09
2023-04-20T23:32:32.588Z,101641.19
2023-04-20T23:37:36.500Z,101630.03
2023-04-20T23:42:40.707Z,101617.84
2023-04-20T23:47:43.692Z,101610.13
2023-04-20T23:53:05.616Z,101591.88
2023-04-20T23:58:09.803Z,101571.13
